Time;durP1;ratioP1;P1;durP2;ratioP2;P2;SDS_P1;SDS_P2;PMS_P1;PMS_P2;Temp;Humidity;BMP_temperature;BMP_pressure;BME280_temperature;BME280_humidity;BME280_pressure;Samples;Min_cycle;Max_cycle;Signal;HPM_P1;HPM_P2
2023/08/10 00:00:16;;;;;;;79.60;41.40;;;16.40;99.90;;;;;;6245089;23;20427;-74
2023/08/10 00:02:42;;;;;;;79.20;40.20;;;16.30;99.90;;;;;;6244726;23;20439;-76
2023/08/10 00:05:10;;;;;;;77.30;38.50;;;16.30;99.90;;;;;;6245179;23;20411;-76
2023/08/10 00:07:37;;;;;;;77.67;39.10;;;16.20;99.90;;;;;;6245130;23;20496;-76
2023/08/10 00:10:08;;;;;;;77.57;40.93;;;16.20;99.90;;;;;;6245131;23;20403;-77
2023/08/10 00:12:35;;;;;;;77.70;40.33;;;16.20;99.90;;;;;;6245122;23;20392;-74
2023/08/10 00:15:02;;;;;;;82.17;39.57;;;16.20;99.90;;;;;;6245021;23;20640;-76
2023/08/10 00:17:29;;;;;;;79.53;40.50;;;16.20;99.90;;;;;;6244949;23;20408;-76
2023/08/10 00:19:56;;;;;;;77.90;41.47;;;16.20;99.90;;;;;;6244611;23;20896;-75
2023/08/10 00:22:23;;;;;;;77.83;41.50;;;16.20;99.90;;;;;;6245200;23;20400;-75
2023/08/10 00:24:49;;;;;;;78.23;41.20;;;16.20;99.90;;;;;;6244872;22;20432;-75
2023/08/10 00:27:17;;;;;;;77.30;40.67;;;16.10;99.90;;;;;;6244667;23;20439;-76
2023/08/10 00:29:45;;;;;;;78.37;37.43;;;16.00;99.90;;;;;;6245483;23;20478;-75
2023/08/10 00:32:12;;;;;;;78.90;40.90;;;15.90;99.90;;;;;;6244909;23;20408;-75
2023/08/10 00:34:39;;;;;;;77.47;38.23;;;15.90;99.90;;;;;;6244550;23;20406;-73
2023/08/10 00:37:06;;;;;;;81.20;40.47;;;15.80;99.90;;;;;;6244450;23;20434;-74
2023/08/10 00:39:32;;;;;;;78.50;41.10;;;15.80;99.90;;;;;;6244512;23;20701;-74
2023/08/10 00:41:59;;;;;;;77.77;39.33;;;15.80;99.90;;;;;;6244953;23;20411;-78
2023/08/10 00:44:27;;;;;;;77.50;39.97;;;15.70;99.90;;;;;;6245037;23;20451;-78
2023/08/10 00:46:54;;;;;;;77.27;38.43;;;15.60;99.90;;;;;;6245322;23;20832;-78
2023/08/10 00:49:21;;;;;;;77.30;39.57;;;15.60;99.90;;;;;;6245185;23;20411;-79
2023/08/10 00:51:48;;;;;;;76.40;37.00;;;15.50;99.90;;;;;;6244323;23;20400;-78
2023/08/10 00:54:14;;;;;;;77.37;40.23;;;15.50;99.90;;;;;;6244594;23;20427;-78
2023/08/10 00:56:41;;;;;;;76.00;38.40;;;15.40;99.90;;;;;;6244867;23;20404;-78
2023/08/10 00:59:08;;;;;;;78.20;39.83;;;15.40;99.90;;;;;;6244801;23;20400;-79
2023/08/10 01:01:37;;;;;;;76.00;37.10;;;15.40;99.90;;;;;;6245974;23;20883;-78
2023/08/10 01:04:04;;;;;;;80.80;40.63;;;15.30;99.90;;;;;;6246542;23;20440;-79
2023/08/10 01:06:39;;;;;;;77.57;39.47;;;15.30;99.90;;;;;;6246771;23;20450;-79
2023/08/10 01:09:15;;;;;;;78.57;41.50;;;15.30;99.90;;;;;;6245546;23;20404;-76
2023/08/10 01:11:46;;;;;;;77.07;38.97;;;15.20;99.90;;;;;;6244943;23;20447;-76
2023/08/10 01:14:20;;;;;;;79.17;40.37;;;15.20;99.90;;;;;;6244472;23;20630;-76
2023/08/10 01:16:52;;;;;;;78.27;40.83;;;15.10;99.90;;;;;;6244470;23;20394;-74
2023/08/10 01:19:33;;;;;;;78.10;39.93;;;15.10;99.90;;;;;;6243904;23;20872;-74
2023/08/10 01:22:07;;;;;;;77.77;39.27;;;15.00;99.90;;;;;;6244236;23;20388;-76
2023/08/10 01:24:41;;;;;;;78.10;39.20;;;15.00;99.90;;;;;;6244338;22;20455;-75
2023/08/10 01:27:09;;;;;;;80.57;38.30;;;15.10;99.90;;;;;;6244007;23;20435;-75
2023/08/10 01:29:36;;;;;;;77.40;40.13;;;15.00;99.90;;;;;;6244324;23;20404;-75
2023/08/10 01:32:03;;;;;;;77.40;40.27;;;15.00;99.90;;;;;;6243502;23;20400;-76
2023/08/10 01:34:30;;;;;;;79.53;40.70;;;15.00;99.90;;;;;;6243766;23;20880;-75
2023/08/10 01:36:57;;;;;;;78.07;39.60;;;14.90;99.90;;;;;;6244323;23;20400;-75
2023/08/10 01:39:24;;;;;;;78.07;41.13;;;14.90;99.90;;;;;;6244020;23;20404;-75
2023/08/10 01:41:51;;;;;;;80.87;41.07;;;14.90;99.90;;;;;;6244103;23;20935;-76
2023/08/10 01:44:19;;;;;;;78.57;39.73;;;14.80;99.90;;;;;;6244084;23;20439;-76
2023/08/10 01:46:49;;;;;;;77.07;39.53;;;14.70;99.90;;;;;;6243930;23;20410;-75
2023/08/10 01:49:19;;;;;;;79.10;38.63;;;14.60;99.90;;;;;;6243992;23;20407;-77
2023/08/10 01:51:48;;;;;;;78.63;40.50;;;14.60;99.90;;;;;;6243537;23;20904;-75
2023/08/10 01:54:16;;;;;;;85.17;38.77;;;14.60;99.90;;;;;;6243868;23;20410;-75
2023/08/10 01:56:44;;;;;;;81.30;41.77;;;14.60;99.90;;;;;;6243288;23;20400;-75
2023/08/10 01:59:11;;;;;;;79.60;39.20;;;14.60;99.90;;;;;;6243284;23;20411;-76
2023/08/10 02:01:39;;;;;;;79.97;39.90;;;14.50;99.90;;;;;;6243344;23;20407;-75
2023/08/10 02:04:06;;;;;;;79.47;39.83;;;14.60;99.90;;;;;;6243708;23;20444;-74
2023/08/10 02:06:38;;;;;;;79.17;39.33;;;14.60;99.90;;;;;;6243820;23;20423;-75
2023/08/10 02:09:05;;;;;;;79.70;40.13;;;14.50;99.90;;;;;;6242886;23;20856;-76
2023/08/10 02:11:32;;;;;;;80.20;38.70;;;14.40;99.90;;;;;;6242771;23;20934;-76
2023/08/10 02:14:01;;;;;;;81.80;39.30;;;14.40;99.90;;;;;;6242643;23;21119;-77
2023/08/10 02:16:27;;;;;;;78.50;37.00;;;14.40;99.90;;;;;;6242582;23;20872;-77
2023/08/10 02:18:55;;;;;;;79.90;39.30;;;14.40;99.90;;;;;;6243051;23;20406;-76
2023/08/10 02:21:23;;;;;;;79.37;38.30;;;14.30;99.90;;;;;;6243302;23;20728;-75
2023/08/10 02:23:51;;;;;;;78.77;38.13;;;14.30;99.90;;;;;;6242964;23;20483;-75
2023/08/10 02:26:18;;;;;;;81.40;40.17;;;14.30;99.90;;;;;;6242544;22;20439;-75
2023/08/10 02:28:44;;;;;;;78.93;38.30;;;14.30;99.90;;;;;;6243054;23;20389;-74
2023/08/10 02:31:11;;;;;;;80.57;40.20;;;14.30;99.90;;;;;;6243287;23;20419;-77
2023/08/10 02:33:38;;;;;;;78.77;39.00;;;14.30;99.90;;;;;;6243187;23;20724;-76
2023/08/10 02:36:06;;;;;;;83.07;38.53;;;14.30;99.90;;;;;;6242630;23;20924;-75
2023/08/10 02:38:33;;;;;;;79.47;37.50;;;14.40;99.90;;;;;;6242948;23;20407;-77
2023/08/10 02:41:00;;;;;;;78.57;38.77;;;14.40;99.90;;;;;;6242747;23;20798;-76
2023/08/10 02:43:27;;;;;;;82.17;40.17;;;14.40;99.90;;;;;;6243966;23;20450;-76
2023/08/10 02:45:54;;;;;;;80.47;39.70;;;14.40;99.90;;;;;;6243827;23;20408;-77
2023/08/10 02:48:21;;;;;;;78.80;40.07;;;14.40;99.90;;;;;;6243654;23;21052;-78
2023/08/10 02:50:48;;;;;;;80.60;40.50;;;14.30;99.90;;;;;;6243166;23;20744;-77
2023/08/10 02:53:16;;;;;;;81.13;41.73;;;14.30;99.90;;;;;;6242924;23;20418;-78
2023/08/10 02:55:44;;;;;;;79.60;41.00;;;14.30;99.90;;;;;;6242836;23;20411;-77
2023/08/10 02:58:10;;;;;;;81.73;40.03;;;14.40;99.90;;;;;;6243139;23;20404;-76
2023/08/10 03:00:37;;;;;;;80.00;37.97;;;14.30;99.90;;;;;;6242950;23;20761;-76
2023/08/10 03:03:05;;;;;;;82.87;41.57;;;14.30;99.90;;;;;;6242592;23;20422;-75
2023/08/10 03:05:32;;;;;;;81.20;40.73;;;14.30;99.90;;;;;;6242769;23;20457;-76
2023/08/10 03:07:58;;;;;;;81.03;41.10;;;14.30;99.90;;;;;;6244144;23;20404;-76
2023/08/10 03:10:27;;;;;;;85.60;43.43;;;14.30;99.90;;;;;;6244512;23;20418;-74
2023/08/10 03:12:53;;;;;;;79.87;39.33;;;14.30;99.90;;;;;;6244441;23;20419;-75
2023/08/10 03:15:20;;;;;;;81.10;39.80;;;14.20;99.90;;;;;;6244104;23;20403;-74
2023/08/10 03:17:47;;;;;;;79.93;41.50;;;14.20;99.90;;;;;;6242054;23;20747;-75
2023/08/10 03:20:16;;;;;;;80.63;42.10;;;14.20;99.90;;;;;;6243855;23;20915;-76
2023/08/10 03:22:43;;;;;;;80.70;42.07;;;14.10;99.90;;;;;;6245770;23;20834;-77
2023/08/10 03:25:10;;;;;;;82.30;41.90;;;14.00;99.90;;;;;;6244879;22;20443;-76
2023/08/10 03:27:38;;;;;;;82.07;41.80;;;14.00;99.90;;;;;;6244294;23;20498;-76
2023/08/10 03:30:06;;;;;;;81.07;42.07;;;13.90;99.90;;;;;;6244725;23;20412;-75
2023/08/10 03:32:33;;;;;;;89.07;40.70;;;13.90;99.90;;;;;;6244856;23;20434;-76
2023/08/10 03:35:00;;;;;;;84.07;42.33;;;14.00;99.90;;;;;;6244519;23;20400;-76
2023/08/10 03:37:27;;;;;;;80.43;40.13;;;14.00;99.90;;;;;;6244165;23;20408;-76
2023/08/10 03:39:53;;;;;;;82.77;41.60;;;14.00;99.90;;;;;;6244619;23;20409;-76
2023/08/10 03:42:20;;;;;;;81.57;39.73;;;14.00;99.90;;;;;;6244580;23;20415;-75
2023/08/10 03:44:48;;;;;;;83.20;39.10;;;14.00;99.90;;;;;;6244493;23;20444;-75
2023/08/10 03:47:15;;;;;;;82.17;40.07;;;14.10;99.90;;;;;;6243955;23;20887;-75
2023/08/10 03:49:41;;;;;;;81.00;39.87;;;14.10;99.90;;;;;;6244408;23;20400;-75
2023/08/10 03:52:08;;;;;;;86.47;41.17;;;14.10;99.90;;;;;;6244407;23;20415;-75
2023/08/10 03:54:35;;;;;;;79.40;37.87;;;14.20;99.90;;;;;;6244449;23;20730;-76
2023/08/10 03:57:01;;;;;;;82.67;39.40;;;14.20;99.90;;;;;;6244060;23;20395;-75
2023/08/10 03:59:29;;;;;;;81.47;40.13;;;14.30;99.90;;;;;;6244598;23;20411;-76
2023/08/10 04:01:58;;;;;;;81.07;40.20;;;14.30;99.90;;;;;;6244238;23;20399;-76
2023/08/10 04:04:25;;;;;;;84.60;40.67;;;14.30;99.90;;;;;;6244095;23;20436;-76
2023/08/10 04:06:51;;;;;;;83.30;40.03;;;14.40;99.90;;;;;;6244273;23;20407;-75
2023/08/10 04:09:18;;;;;;;82.97;38.50;;;14.50;99.90;;;;;;6244028;23;20403;-77
2023/08/10 04:11:45;;;;;;;80.53;40.53;;;14.40;99.90;;;;;;6244156;23;20406;-76
2023/08/10 04:14:11;;;;;;;80.37;40.57;;;14.50;99.90;;;;;;6243909;23;20400;-76
2023/08/10 04:16:38;;;;;;;82.77;39.63;;;14.40;99.90;;;;;;6243798;23;20412;-78
2023/08/10 04:19:06;;;;;;;80.57;39.53;;;14.40;99.90;;;;;;6243727;23;20426;-77
2023/08/10 04:21:33;;;;;;;81.57;41.60;;;14.50;99.90;;;;;;6244248;23;20431;-77
2023/08/10 04:23:59;;;;;;;79.93;38.80;;;14.50;99.90;;;;;;6243823;23;20471;-77
2023/08/10 04:26:26;;;;;;;85.47;42.30;;;14.50;99.90;;;;;;6243539;22;20443;-77
2023/08/10 04:28:53;;;;;;;84.80;41.83;;;14.50;99.90;;;;;;6244754;23;20411;-79
2023/08/10 04:31:19;;;;;;;85.67;40.30;;;14.50;99.90;;;;;;6245055;23;20400;-80
2023/08/10 04:33:46;;;;;;;80.47;38.93;;;14.50;99.90;;;;;;6245319;23;20407;-80
2023/08/10 04:36:14;;;;;;;80.60;42.20;;;14.40;99.90;;;;;;6245385;23;20404;-80
2023/08/10 04:38:41;;;;;;;83.13;41.70;;;14.50;99.90;;;;;;6243980;23;20400;-79
2023/08/10 04:41:07;;;;;;;81.57;41.07;;;14.50;99.90;;;;;;6243657;23;20411;-79
2023/08/10 04:43:34;;;;;;;82.47;42.63;;;14.40;99.90;;;;;;6243819;23;20727;-78
2023/08/10 04:46:01;;;;;;;82.40;40.30;;;14.40;99.90;;;;;;6243863;23;20458;-76
2023/08/10 04:48:28;;;;;;;83.27;42.47;;;14.40;99.90;;;;;;6243733;23;20451;-77
2023/08/10 04:50:55;;;;;;;88.67;41.90;;;14.40;99.90;;;;;;6243875;23;20395;-76
2023/08/10 04:53:23;;;;;;;82.10;40.77;;;14.40;99.90;;;;;;6243755;23;20407;-77
2023/08/10 04:55:51;;;;;;;84.63;43.43;;;14.40;99.90;;;;;;6243823;23;20396;-77
2023/08/10 04:58:18;;;;;;;84.67;43.10;;;14.40;99.90;;;;;;6243220;23;20487;-77
2023/08/10 05:00:45;;;;;;;86.50;44.80;;;14.50;99.90;;;;;;6235720;23;20431;-79
2023/08/10 05:03:11;;;;;;;84.87;43.40;;;14.50;99.90;;;;;;6242485;23;20407;-80
2023/08/10 05:05:39;;;;;;;85.87;43.80;;;14.60;99.90;;;;;;6243174;23;20435;-81
2023/08/10 05:08:07;;;;;;;84.50;42.20;;;14.70;99.90;;;;;;6243281;23;20908;-80
2023/08/10 05:10:35;;;;;;;89.33;45.53;;;14.70;99.90;;;;;;6243112;23;20724;-76
2023/08/10 05:13:02;;;;;;;92.07;43.60;;;14.80;99.90;;;;;;6242565;23;20404;-77
2023/08/10 05:15:29;;;;;;;87.60;42.80;;;15.10;99.90;;;;;;6242969;23;20895;-76
2023/08/10 05:17:56;;;;;;;82.90;43.20;;;15.40;99.90;;;;;;6242286;23;20783;-79
2023/08/10 05:20:23;;;;;;;87.20;43.97;;;15.50;99.90;;;;;;6242324;23;20438;-78
2023/08/10 05:22:51;;;;;;;83.40;44.17;;;15.80;99.90;;;;;;6243311;23;20404;-77
2023/08/10 05:25:18;;;;;;;100.00;46.97;;;16.00;99.90;;;;;;6242663;22;20451;-77
2023/08/10 05:27:47;;;;;;;85.20;45.03;;;16.20;99.90;;;;;;6243236;23;20777;-77
2023/08/10 05:30:14;;;;;;;82.23;46.33;;;16.40;99.90;;;;;;6243148;23;20408;-78
2023/08/10 05:32:43;;;;;;;85.60;47.07;;;16.60;99.90;;;;;;6244059;23;20411;-78
2023/08/10 05:35:11;;;;;;;81.60;45.57;;;16.80;99.90;;;;;;6242570;23;20949;-75
2023/08/10 05:37:39;;;;;;;83.83;48.40;;;17.00;99.90;;;;;;6238730;23;20404;-75
2023/08/10 05:40:09;;;;;;;80.67;44.83;;;17.10;99.90;;;;;;6242501;23;20454;-76
2023/08/10 05:42:36;;;;;;;82.90;48.60;;;17.30;99.90;;;;;;6242587;23;20443;-76
2023/08/10 05:45:06;;;;;;;80.40;47.80;;;17.50;99.90;;;;;;6243137;23;20972;-77
2023/08/10 05:47:33;;;;;;;82.80;49.50;;;17.60;99.90;;;;;;6244673;23;20408;-75
2023/08/10 05:49:59;;;;;;;80.50;48.50;;;17.70;99.90;;;;;;6246528;23;20427;-78
2023/08/10 05:52:26;;;;;;;82.27;49.87;;;17.90;99.90;;;;;;6244331;23;20765;-79
2023/08/10 05:54:53;;;;;;;79.87;46.87;;;18.20;99.90;;;;;;6245018;23;20407;-79
2023/08/10 05:57:20;;;;;;;81.20;48.07;;;18.30;99.90;;;;;;6246441;23;20411;-79
2023/08/10 05:59:47;;;;;;;83.20;47.33;;;18.80;99.90;;;;;;6245047;23;20408;-79
2023/08/10 06:02:17;;;;;;;84.30;46.80;;;19.00;99.90;;;;;;6240000;23;20424;-78
2023/08/10 06:04:44;;;;;;;85.70;46.83;;;19.60;99.90;;;;;;6246600;23;20440;-80
2023/08/10 06:07:12;;;;;;;79.57;44.87;;;19.80;99.90;;;;;;6246869;23;20411;-79
2023/08/10 06:09:38;;;;;;;81.50;48.00;;;19.70;99.90;;;;;;6247245;23;20434;-81
2023/08/10 06:12:06;;;;;;;82.03;47.87;;;19.40;99.90;;;;;;6248639;23;20407;-80
2023/08/10 06:14:33;;;;;;;83.63;48.20;;;19.00;99.90;;;;;;6247326;23;20482;-81
2023/08/10 06:17:00;;;;;;;81.07;47.77;;;18.70;99.90;;;;;;6247435;23;20486;-80
2023/08/10 06:19:28;;;;;;;82.70;48.67;;;18.80;99.90;;;;;;6247254;23;20815;-81
2023/08/10 06:21:54;;;;;;;79.93;47.10;;;18.80;99.90;;;;;;6249329;23;20411;-83
2023/08/10 06:24:22;;;;;;;79.70;46.13;;;18.60;99.90;;;;;;6246785;22;20443;-82
2023/08/10 06:26:49;;;;;;;80.57;46.70;;;18.50;99.90;;;;;;6248657;23;20444;-81
2023/08/10 06:29:16;;;;;;;79.40;46.23;;;18.40;99.90;;;;;;6245874;23;20473;-83
2023/08/10 06:31:42;;;;;;;79.80;46.97;;;18.10;99.90;;;;;;6242142;23;20404;-81
2023/08/10 06:34:09;;;;;;;80.57;46.03;;;17.90;99.90;;;;;;6243277;23;20461;-78
2023/08/10 06:36:37;;;;;;;84.60;48.00;;;17.90;99.90;;;;;;6240877;23;20404;-77
2023/08/10 06:39:05;;;;;;;79.10;45.13;;;17.70;99.90;;;;;;6242045;23;20395;-77
2023/08/10 06:41:32;;;;;;;79.20;45.63;;;17.60;99.90;;;;;;6242318;23;20419;-77
2023/08/10 06:43:59;;;;;;;79.30;44.87;;;17.60;99.90;;;;;;6242586;23;20747;-77
2023/08/10 06:46:25;;;;;;;80.27;50.60;;;17.60;99.90;;;;;;6243049;23;20448;-77
2023/08/10 06:48:52;;;;;;;80.20;46.80;;;17.50;99.90;;;;;;6242717;23;20411;-75
2023/08/10 06:51:19;;;;;;;80.80;46.57;;;17.40;99.90;;;;;;6243051;23;20406;-76
2023/08/10 06:53:47;;;;;;;78.30;45.67;;;17.40;99.90;;;;;;6243623;23;20443;-80
2023/08/10 06:56:14;;;;;;;78.70;46.47;;;17.40;99.90;;;;;;6244535;23;20783;-76
2023/08/10 06:58:42;;;;;;;97.33;48.83;;;17.50;99.90;;;;;;6243350;23;20407;-79
2023/08/10 07:01:09;;;;;;;79.67;44.60;;;17.70;99.90;;;;;;6243567;23;20442;-77
2023/08/10 07:03:36;;;;;;;80.27;45.40;;;17.80;99.90;;;;;;6243939;23;20404;-77
2023/08/10 07:06:03;;;;;;;79.50;45.90;;;17.80;99.90;;;;;;6244193;23;20443;-77
2023/08/10 07:08:30;;;;;;;80.63;45.60;;;17.90;99.90;;;;;;6243682;23;20404;-77
2023/08/10 07:11:02;;;;;;;79.07;46.43;;;18.00;99.90;;;;;;6244807;23;20483;-76
2023/08/10 07:13:28;;;;;;;79.40;45.40;;;18.00;99.90;;;;;;6244158;23;20387;-77
2023/08/10 07:15:55;;;;;;;79.53;44.13;;;18.20;99.90;;;;;;6243515;23;20407;-78
2023/08/10 07:18:22;;;;;;;79.37;43.80;;;18.50;99.90;;;;;;6243710;23;20408;-79
2023/08/10 07:20:49;;;;;;;78.47;42.77;;;18.60;99.90;;;;;;6244374;23;20415;-79
2023/08/10 07:23:17;;;;;;;77.80;42.70;;;18.60;99.90;;;;;;6243797;23;20404;-79
2023/08/10 07:25:45;;;;;;;81.97;45.10;;;18.60;99.90;;;;;;6244011;22;20802;-79
2023/08/10 07:28:13;;;;;;;80.10;44.77;;;18.80;99.90;;;;;;6243702;23;20435;-78
2023/08/10 07:30:40;;;;;;;78.73;45.17;;;18.80;99.90;;;;;;6244241;23;20411;-79
2023/08/10 07:33:07;;;;;;;81.43;42.20;;;18.80;99.90;;;;;;6244702;23;20408;-79
2023/08/10 07:35:34;;;;;;;80.97;46.30;;;18.90;99.90;;;;;;6245476;23;20591;-79
2023/08/10 07:38:01;;;;;;;78.40;45.23;;;19.00;99.90;;;;;;6244571;23;20687;-78
2023/08/10 07:40:27;;;;;;;77.97;43.63;;;19.10;99.90;;;;;;6243428;23;20408;-78
2023/08/10 07:42:54;;;;;;;77.87;42.70;;;19.50;99.90;;;;;;6244273;23;20404;-78
2023/08/10 07:45:22;;;;;;;81.93;42.70;;;19.70;99.90;;;;;;6243886;23;20449;-80
2023/08/10 07:47:49;;;;;;;78.97;45.10;;;20.10;99.90;;;;;;6239470;23;20435;-79
2023/08/10 07:50:16;;;;;;;78.37;44.03;;;20.40;99.90;;;;;;6244046;23;20408;-79
2023/08/10 07:52:42;;;;;;;77.27;42.33;;;20.50;99.90;;;;;;6245880;23;20418;-79
2023/08/10 07:55:11;;;;;;;77.60;44.30;;;20.70;99.90;;;;;;6246030;23;20400;-79
2023/08/10 07:57:38;;;;;;;80.90;43.13;;;20.80;99.90;;;;;;6247071;23;20450;-80
2023/08/10 08:00:06;;;;;;;77.60;42.43;;;21.00;99.90;;;;;;6245650;23;20926;-79
2023/08/10 08:02:34;;;;;;;77.30;42.90;;;21.20;99.90;;;;;;6246410;23;20404;-79
2023/08/10 08:05:01;;;;;;;78.00;42.60;;;21.30;99.90;;;;;;6246719;23;20791;-78
2023/08/10 08:07:30;;;;;;;79.00;43.10;;;21.30;99.90;;;;;;6246578;23;20442;-79
2023/08/10 08:09:57;;;;;;;77.50;40.93;;;21.20;99.90;;;;;;6245182;23;20843;-78
2023/08/10 08:12:25;;;;;;;76.97;42.87;;;21.20;99.90;;;;;;6246086;23;20400;-79
2023/08/10 08:14:52;;;;;;;76.30;42.00;;;21.50;99.90;;;;;;6245575;23;20404;-81
2023/08/10 08:17:19;;;;;;;77.03;41.20;;;21.60;99.90;;;;;;6244359;23;20404;-80
2023/08/10 08:19:47;;;;;;;76.90;41.73;;;21.50;99.90;;;;;;6244087;23;20404;-80
2023/08/10 08:22:14;;;;;;;76.37;39.53;;;21.30;99.90;;;;;;6244046;23;20412;-80
2023/08/10 08:24:41;;;;;;;75.77;41.40;;;21.50;99.90;;;;;;6244595;22;20424;-80
2023/08/10 08:27:07;;;;;;;75.57;40.87;;;21.90;99.90;;;;;;6243828;23;20447;-79
2023/08/10 08:29:34;;;;;;;74.63;38.80;;;22.10;99.90;;;;;;6244689;23;20760;-80
2023/08/10 08:32:01;;;;;;;75.50;40.30;;;22.50;99.90;;;;;;6244603;23;20404;-80
2023/08/10 08:34:28;;;;;;;74.90;40.00;;;22.60;99.90;;;;;;6245197;23;20400;-79
2023/08/10 08:36:56;;;;;;;75.27;39.13;;;22.80;99.90;;;;;;6244071;23;20439;-79
2023/08/10 08:39:23;;;;;;;75.00;38.70;;;22.90;99.90;;;;;;6243443;23;20412;-80
2023/08/10 08:41:51;;;;;;;77.60;41.03;;;23.10;99.90;;;;;;6243857;23;20430;-79
2023/08/10 08:44:18;;;;;;;75.93;38.97;;;23.10;99.90;;;;;;6243486;23;20423;-80
2023/08/10 08:46:48;;;;;;;76.70;38.70;;;23.60;99.90;;;;;;6241689;23;20463;-78
2023/08/10 08:49:15;;;;;;;76.23;40.23;;;23.90;99.90;;;;;;6240417;23;20399;-80
2023/08/10 08:51:43;;;;;;;78.17;39.13;;;24.10;99.90;;;;;;6239843;23;20472;-78
2023/08/10 08:54:13;;;;;;;74.90;39.00;;;24.20;99.90;;;;;;6239825;23;20434;-77
2023/08/10 08:56:39;;;;;;;74.70;40.33;;;24.90;99.90;;;;;;6239913;23;20404;-77
2023/08/10 08:59:06;;;;;;;74.47;38.47;;;25.40;98.80;;;;;;6244456;23;20403;-78
2023/08/10 09:01:33;;;;;;;73.00;37.67;;;25.00;99.80;;;;;;6244015;23;20407;-76
2023/08/10 09:04:00;;;;;;;75.93;38.63;;;25.30;99.60;;;;;;6243876;23;20429;-75
2023/08/10 09:06:27;;;;;;;74.90;39.20;;;25.90;97.40;;;;;;6243869;23;20451;-77
2023/08/10 09:08:54;;;;;;;74.07;37.50;;;25.70;97.30;;;;;;6243045;23;20414;-76
2023/08/10 09:11:22;;;;;;;74.77;38.63;;;25.40;98.00;;;;;;6241180;23;20400;-76
2023/08/10 09:14:08;;;;;;;73.90;39.37;;;25.70;97.70;;;;;;6242896;23;20423;-77
2023/08/10 09:16:35;;;;;;;73.30;37.23;;;26.50;96.50;;;;;;6242621;23;20891;-75
2023/08/10 09:19:03;;;;;;;74.23;39.20;;;26.50;95.70;;;;;;6243228;23;20407;-75
2023/08/10 09:21:32;;;;;;;74.40;39.50;;;27.00;94.80;;;;;;6242626;23;20776;-76
2023/08/10 09:23:59;;;;;;;73.20;39.70;;;27.30;94.10;;;;;;6242731;23;20396;-76
2023/08/10 09:26:27;;;;;;;72.70;37.87;;;27.70;93.40;;;;;;6241626;22;20464;-76
2023/08/10 09:28:55;;;;;;;71.97;38.13;;;27.60;92.60;;;;;;6243261;23;21121;-76
2023/08/10 09:31:24;;;;;;;74.67;40.20;;;27.50;93.20;;;;;;6242991;23;20434;-76
2023/08/10 09:33:54;;;;;;;72.90;37.53;;;28.40;92.50;;;;;;6243059;23;20403;-76
2023/08/10 09:36:24;;;;;;;74.33;37.77;;;28.80;91.10;;;;;;6243230;23;20396;-76
2023/08/10 09:38:51;;;;;;;75.43;39.23;;;28.70;90.10;;;;;;6243379;23;20735;-75
2023/08/10 09:41:19;;;;;;;71.90;35.80;;;29.10;90.10;;;;;;6243637;23;20411;-75
2023/08/10 09:43:48;;;;;;;71.37;37.27;;;29.80;85.00;;;;;;6243360;23;20408;-75
2023/08/10 09:46:16;;;;;;;71.47;37.60;;;30.00;84.30;;;;;;6242471;23;20450;-74
2023/08/10 09:48:44;;;;;;;71.10;36.00;;;30.20;82.90;;;;;;6243130;23;20408;-75
2023/08/10 09:51:12;;;;;;;75.60;37.13;;;31.20;80.30;;;;;;6243172;23;20414;-76
2023/08/10 09:53:39;;;;;;;71.67;37.77;;;32.20;74.90;;;;;;6243184;23;20469;-76
2023/08/10 09:56:07;;;;;;;72.30;35.77;;;32.40;72.70;;;;;;6242994;23;20400;-75
2023/08/10 09:58:34;;;;;;;71.73;36.53;;;32.60;73.30;;;;;;6242799;23;20408;-76
2023/08/10 10:01:03;;;;;;;70.97;35.13;;;33.50;69.30;;;;;;6243045;23;20408;-75
2023/08/10 10:03:32;;;;;;;69.80;35.40;;;33.40;68.30;;;;;;6242873;23;20938;-76
2023/08/10 10:06:00;;;;;;;69.60;34.27;;;33.60;64.50;;;;;;6243392;23;20439;-77
2023/08/10 10:08:27;;;;;;;70.20;34.93;;;33.10;66.50;;;;;;6240934;23;20426;-75
2023/08/10 10:10:57;;;;;;;69.90;34.90;;;34.00;64.30;;;;;;6243258;23;20404;-75
2023/08/10 10:13:25;;;;;;;69.80;35.80;;;34.00;63.70;;;;;;6243184;23;20415;-75
2023/08/10 10:15:54;;;;;;;70.13;35.57;;;34.10;61.80;;;;;;6243028;23;20404;-76
2023/08/10 10:18:23;;;;;;;72.17;37.33;;;34.10;62.10;;;;;;6242759;23;20922;-77
2023/08/10 10:20:51;;;;;;;70.10;37.33;;;33.80;62.00;;;;;;6243085;23;20408;-75
2023/08/10 10:23:19;;;;;;;69.50;35.17;;;33.20;63.30;;;;;;6243355;23;20653;-75
2023/08/10 10:25:59;;;;;;;71.50;35.70;;;34.00;62.20;;;;;;6243019;22;20490;-76
2023/08/10 10:28:28;;;;;;;68.87;33.40;;;34.70;61.10;;;;;;6212804;23;20385;-75
2023/08/10 10:30:57;;;;;;;74.33;36.00;;;35.10;59.40;;;;;;6213177;23;20405;-74
2023/08/10 10:33:25;;;;;;;70.47;37.90;;;34.90;58.90;;;;;;6212791;23;20401;-75
2023/08/10 10:36:12;;;;;;;68.70;34.93;;;35.20;58.90;;;;;;6212944;23;20788;-76
2023/08/10 10:38:40;;;;;;;71.87;35.40;;;35.20;58.30;;;;;;6212524;23;20908;-75
2023/08/10 10:41:14;;;;;;;74.70;37.27;;;34.90;58.50;;;;;;6205700;23;20478;-76
2023/08/10 10:43:44;;;;;;;76.30;38.43;;;34.20;59.50;;;;;;6212004;23;20404;-75
2023/08/10 10:46:26;;;;;;;70.00;34.80;;;34.40;60.30;;;;;;6212204;23;20667;-77
2023/08/10 10:48:54;;;;;;;69.60;35.90;;;35.20;58.70;;;;;;6211913;23;20955;-77
2023/08/10 10:51:23;;;;;;;69.87;35.97;;;35.40;56.90;;;;;;6212443;23;20401;-78
2023/08/10 10:53:53;;;;;;;69.40;36.73;;;35.30;55.70;;;;;;6212544;23;20415;-77
2023/08/10 10:56:20;;;;;;;69.87;37.07;;;36.20;54.00;;;;;;6212939;23;20576;-76
2023/08/10 10:58:47;;;;;;;70.77;37.90;;;36.00;53.00;;;;;;6211803;23;20413;-77
2023/08/10 11:01:14;;;;;;;69.77;37.33;;;35.80;51.80;;;;;;6212049;23;20408;-76
2023/08/10 11:03:41;;;;;;;70.03;34.90;;;35.70;51.80;;;;;;6211292;23;20520;-75
2023/08/10 11:06:13;;;;;;;69.90;36.60;;;35.50;51.60;;;;;;6211474;23;20547;-76
2023/08/10 11:08:40;;;;;;;71.57;40.50;;;35.70;52.80;;;;;;6210963;23;20397;-77
2023/08/10 11:11:07;;;;;;;69.33;36.00;;;36.30;53.00;;;;;;6211792;23;20389;-76
2023/08/10 11:13:34;;;;;;;71.83;37.03;;;36.30;52.30;;;;;;6212151;23;20412;-76
2023/08/10 11:16:01;;;;;;;69.00;36.83;;;36.50;51.30;;;;;;6211989;23;20405;-76
2023/08/10 11:18:28;;;;;;;69.30;35.80;;;35.60;51.50;;;;;;6211918;23;20909;-76
2023/08/10 11:20:55;;;;;;;70.57;38.20;;;34.70;51.50;;;;;;6212341;23;20404;-76
2023/08/10 11:23:25;;;;;;;69.40;34.00;;;33.90;52.90;;;;;;6212003;23;20409;-75
2023/08/10 11:25:54;;;;;;;70.30;35.47;;;33.50;53.90;;;;;;6212623;23;20459;-76
2023/08/10 11:28:22;;;;;;;70.90;37.73;;;33.80;54.30;;;;;;6243459;23;20388;-75
2023/08/10 11:30:49;;;;;;;69.97;36.60;;;34.30;53.40;;;;;;6244341;23;20950;-76
2023/08/10 11:33:16;;;;;;;69.50;34.27;;;34.00;54.50;;;;;;6244274;23;20731;-76
2023/08/10 11:35:45;;;;;;;71.30;35.23;;;34.00;53.70;;;;;;6244024;23;20399;-74
2023/08/10 11:38:11;;;;;;;70.00;36.73;;;34.60;53.50;;;;;;6244430;23;20571;-75
2023/08/10 11:40:39;;;;;;;70.10;35.67;;;34.10;54.90;;;;;;6243904;23;20395;-74
2023/08/10 11:43:10;;;;;;;70.80;34.43;;;33.20;54.70;;;;;;6243468;23;20409;-75
2023/08/10 11:45:38;;;;;;;70.47;36.20;;;33.50;55.00;;;;;;6243479;23;20762;-76
2023/08/10 11:48:07;;;;;;;72.90;37.43;;;33.80;54.00;;;;;;6243426;23;20746;-76
2023/08/10 11:50:34;;;;;;;70.83;38.50;;;34.00;53.70;;;;;;6242926;23;20411;-77
2023/08/10 11:53:11;;;;;;;72.37;36.40;;;34.30;52.70;;;;;;6243489;23;20400;-75
2023/08/10 11:55:43;;;;;;;68.77;33.87;;;34.10;52.00;;;;;;6243656;23;20423;-75
2023/08/10 11:58:13;;;;;;;70.00;35.30;;;34.00;51.90;;;;;;6243927;23;20396;-75
2023/08/10 12:00:41;;;;;;;71.60;36.90;;;34.10;53.20;;;;;;6243357;23;20900;-76
2023/08/10 12:03:11;;;;;;;71.40;35.90;;;33.00;54.60;;;;;;6243953;23;20403;-76
2023/08/10 12:05:44;;;;;;;70.40;35.33;;;32.30;56.20;;;;;;6243674;23;20392;-77
2023/08/10 12:08:13;;;;;;;70.57;36.30;;;32.30;55.60;;;;;;6243396;23;20443;-75
2023/08/10 12:10:43;;;;;;;71.53;35.03;;;32.40;55.40;;;;;;6243352;23;20415;-76
2023/08/10 12:13:13;;;;;;;70.90;36.30;;;33.20;54.60;;;;;;6243437;23;20396;-75
2023/08/10 12:15:46;;;;;;;70.43;36.43;;;33.00;55.20;;;;;;6244226;23;20752;-76
2023/08/10 12:18:13;;;;;;;70.40;36.00;;;32.40;54.90;;;;;;6243974;23;20483;-76
2023/08/10 12:20:40;;;;;;;71.80;38.63;;;32.00;56.00;;;;;;6243920;23;20677;-76
2023/08/10 12:23:08;;;;;;;71.90;37.17;;;32.30;54.50;;;;;;6243572;23;20404;-76
2023/08/10 12:25:35;;;;;;;70.03;34.30;;;33.00;53.20;;;;;;6243302;22;20431;-76
2023/08/10 12:28:03;;;;;;;70.23;35.90;;;32.80;53.10;;;;;;6242721;23;20455;-75